sensor_id;sensor_type;location;lat;lon;timestamp;P1;durP1;ratioP1;P2;durP2;ratioP2
47669;SDS011;33408;52.062;11.722;2024-03-06T00:00:13;20.17;;;13.98;;
47669;SDS011;33408;52.062;11.722;2024-03-06T00:02:40;21.65;;;14.80;;
47669;SDS011;33408;52.062;11.722;2024-03-06T00:05:07;19.95;;;15.27;;
47669;SDS011;33408;52.062;11.722;2024-03-06T00:07:34;22.27;;;15.63;;
47669;SDS011;33408;52.062;11.722;2024-03-06T00:10:01;17.52;;;13.82;;
47669;SDS011;33408;52.062;11.722;2024-03-06T00:12:30;20.13;;;14.18;;
47669;SDS011;33408;52.062;11.722;2024-03-06T00:14:58;19.83;;;14.23;;
47669;SDS011;33408;52.062;11.722;2024-03-06T00:17:24;19.35;;;14.30;;
47669;SDS011;33408;52.062;11.722;2024-03-06T00:19:51;20.52;;;14.25;;
47669;SDS011;33408;52.062;11.722;2024-03-06T00:22:17;20.38;;;15.02;;
47669;SDS011;33408;52.062;11.722;2024-03-06T00:24:44;18.48;;;14.60;;
47669;SDS011;33408;52.062;11.722;2024-03-06T00:27:11;21.25;;;14.80;;
47669;SDS011;33408;52.062;11.722;2024-03-06T00:29:37;18.85;;;14.85;;
47669;SDS011;33408;52.062;11.722;2024-03-06T00:32:06;18.80;;;14.18;;
47669;SDS011;33408;52.062;11.722;2024-03-06T00:34:32;17.08;;;14.40;;
47669;SDS011;33408;52.062;11.722;2024-03-06T00:36:59;17.50;;;14.50;;
47669;SDS011;33408;52.062;11.722;2024-03-06T00:39:26;22.75;;;15.43;;
47669;SDS011;33408;52.062;11.722;2024-03-06T00:41:52;21.15;;;15.38;;
47669;SDS011;33408;52.062;11.722;2024-03-06T00:44:19;18.83;;;14.23;;
47669;SDS011;33408;52.062;11.722;2024-03-06T00:46:46;21.45;;;16.50;;
47669;SDS011;33408;52.062;11.722;2024-03-06T00:49:14;17.20;;;14.25;;
47669;SDS011;33408;52.062;11.722;2024-03-06T00:51:41;18.75;;;13.82;;
47669;SDS011;33408;52.062;11.722;2024-03-06T00:54:07;20.42;;;15.00;;
47669;SDS011;33408;52.062;11.722;2024-03-06T00:56:36;22.17;;;15.73;;
47669;SDS011;33408;52.062;11.722;2024-03-06T00:59:03;19.67;;;15.35;;
47669;SDS011;33408;52.062;11.722;2024-03-06T01:01:30;20.52;;;15.48;;
47669;SDS011;33408;52.062;11.722;2024-03-06T01:03:56;19.35;;;15.50;;
47669;SDS011;33408;52.062;11.722;2024-03-06T01:06:24;21.58;;;16.63;;
47669;SDS011;33408;52.062;11.722;2024-03-06T01:08:51;21.52;;;16.40;;
47669;SDS011;33408;52.062;11.722;2024-03-06T01:11:17;21.42;;;17.15;;
47669;SDS011;33408;52.062;11.722;2024-03-06T01:13:44;21.25;;;17.08;;
47669;SDS011;33408;52.062;11.722;2024-03-06T01:16:10;22.63;;;18.08;;
47669;SDS011;33408;52.062;11.722;2024-03-06T01:18:37;21.75;;;17.42;;
47669;SDS011;33408;52.062;11.722;2024-03-06T01:21:04;24.35;;;17.65;;
47669;SDS011;33408;52.062;11.722;2024-03-06T01:23:32;22.67;;;16.88;;
47669;SDS011;33408;52.062;11.722;2024-03-06T01:25:58;23.65;;;17.98;;
47669;SDS011;33408;52.062;11.722;2024-03-06T01:28:25;22.70;;;17.30;;
47669;SDS011;33408;52.062;11.722;2024-03-06T01:30:52;21.10;;;16.48;;
47669;SDS011;33408;52.062;11.722;2024-03-06T01:33:19;23.98;;;17.98;;
47669;SDS011;33408;52.062;11.722;2024-03-06T01:35:46;22.23;;;16.75;;
47669;SDS011;33408;52.062;11.722;2024-03-06T01:38:13;22.10;;;17.25;;
47669;SDS011;33408;52.062;11.722;2024-03-06T01:40:43;22.75;;;16.27;;
47669;SDS011;33408;52.062;11.722;2024-03-06T01:43:17;20.95;;;16.67;;
47669;SDS011;33408;52.062;11.722;2024-03-06T01:45:47;24.55;;;17.88;;
47669;SDS011;33408;52.062;11.722;2024-03-06T01:48:13;21.17;;;17.73;;
47669;SDS011;33408;52.062;11.722;2024-03-06T01:50:41;21.27;;;18.00;;
47669;SDS011;33408;52.062;11.722;2024-03-06T01:53:07;22.73;;;17.40;;
47669;SDS011;33408;52.062;11.722;2024-03-06T01:55:35;22.45;;;17.10;;
47669;SDS011;33408;52.062;11.722;2024-03-06T01:58:04;22.70;;;17.58;;
47669;SDS011;33408;52.062;11.722;2024-03-06T02:00:32;22.67;;;16.90;;
47669;SDS011;33408;52.062;11.722;2024-03-06T02:02:59;20.70;;;17.27;;
47669;SDS011;33408;52.062;11.722;2024-03-06T02:05:27;23.92;;;17.23;;
47669;SDS011;33408;52.062;11.722;2024-03-06T02:07:56;28.42;;;19.13;;
47669;SDS011;33408;52.062;11.722;2024-03-06T02:10:24;27.02;;;18.38;;
47669;SDS011;33408;52.062;11.722;2024-03-06T02:12:51;25.92;;;18.50;;
47669;SDS011;33408;52.062;11.722;2024-03-06T02:15:20;24.42;;;18.50;;
47669;SDS011;33408;52.062;11.722;2024-03-06T02:17:47;24.15;;;18.17;;
47669;SDS011;33408;52.062;11.722;2024-03-06T02:20:13;23.95;;;17.45;;
47669;SDS011;33408;52.062;11.722;2024-03-06T02:22:42;24.40;;;17.98;;
47669;SDS011;33408;52.062;11.722;2024-03-06T02:25:08;25.80;;;19.10;;
47669;SDS011;33408;52.062;11.722;2024-03-06T02:27:37;26.17;;;19.08;;
47669;SDS011;33408;52.062;11.722;2024-03-06T02:30:04;23.55;;;18.58;;
47669;SDS011;33408;52.062;11.722;2024-03-06T02:32:31;22.33;;;18.42;;
47669;SDS011;33408;52.062;11.722;2024-03-06T02:34:57;22.80;;;18.30;;
47669;SDS011;33408;52.062;11.722;2024-03-06T02:37:24;26.27;;;18.08;;
47669;SDS011;33408;52.062;11.722;2024-03-06T02:39:52;24.13;;;19.23;;
47669;SDS011;33408;52.062;11.722;2024-03-06T02:42:19;22.23;;;18.38;;
47669;SDS011;33408;52.062;11.722;2024-03-06T02:44:45;30.13;;;18.63;;
47669;SDS011;33408;52.062;11.722;2024-03-06T02:47:12;26.15;;;18.77;;
47669;SDS011;33408;52.062;11.722;2024-03-06T02:49:39;25.25;;;17.85;;
47669;SDS011;33408;52.062;11.722;2024-03-06T02:52:05;23.05;;;18.67;;
47669;SDS011;33408;52.062;11.722;2024-03-06T02:54:32;24.90;;;19.17;;
47669;SDS011;33408;52.062;11.722;2024-03-06T02:57:00;25.90;;;19.30;;
47669;SDS011;33408;52.062;11.722;2024-03-06T02:59:26;24.15;;;19.30;;
47669;SDS011;33408;52.062;11.722;2024-03-06T03:01:53;23.38;;;18.92;;
47669;SDS011;33408;52.062;11.722;2024-03-06T03:04:19;25.98;;;19.30;;
47669;SDS011;33408;52.062;11.722;2024-03-06T03:06:46;26.20;;;18.75;;
47669;SDS011;33408;52.062;11.722;2024-03-06T03:09:13;25.48;;;19.80;;
47669;SDS011;33408;52.062;11.722;2024-03-06T03:11:41;23.17;;;18.30;;
47669;SDS011;33408;52.062;11.722;2024-03-06T03:14:10;23.48;;;18.20;;
47669;SDS011;33408;52.062;11.722;2024-03-06T03:16:37;27.73;;;19.42;;
47669;SDS011;33408;52.062;11.722;2024-03-06T03:19:03;24.27;;;20.42;;
47669;SDS011;33408;52.062;11.722;2024-03-06T03:21:30;23.67;;;18.05;;
47669;SDS011;33408;52.062;11.722;2024-03-06T03:23:57;22.35;;;18.95;;
47669;SDS011;33408;52.062;11.722;2024-03-06T03:26:24;25.35;;;19.90;;
47669;SDS011;33408;52.062;11.722;2024-03-06T03:28:50;25.75;;;19.70;;
47669;SDS011;33408;52.062;11.722;2024-03-06T03:31:18;26.58;;;20.45;;
47669;SDS011;33408;52.062;11.722;2024-03-06T03:33:46;29.25;;;19.45;;
47669;SDS011;33408;52.062;11.722;2024-03-06T03:36:13;27.83;;;19.30;;
47669;SDS011;33408;52.062;11.722;2024-03-06T03:38:40;24.85;;;20.33;;
47669;SDS011;33408;52.062;11.722;2024-03-06T03:41:07;23.83;;;20.00;;
47669;SDS011;33408;52.062;11.722;2024-03-06T03:43:34;23.23;;;19.52;;
47669;SDS011;33408;52.062;11.722;2024-03-06T03:46:00;27.67;;;20.17;;
47669;SDS011;33408;52.062;11.722;2024-03-06T03:48:28;28.00;;;19.77;;
47669;SDS011;33408;52.062;11.722;2024-03-06T03:50:55;23.50;;;19.88;;
47669;SDS011;33408;52.062;11.722;2024-03-06T03:53:21;22.75;;;18.45;;
47669;SDS011;33408;52.062;11.722;2024-03-06T03:55:48;27.65;;;20.00;;
47669;SDS011;33408;52.062;11.722;2024-03-06T03:58:15;24.90;;;20.75;;
47669;SDS011;33408;52.062;11.722;2024-03-06T04:00:42;25.38;;;20.13;;
47669;SDS011;33408;52.062;11.722;2024-03-06T04:03:09;25.48;;;20.88;;
47669;SDS011;33408;52.062;11.722;2024-03-06T04:05:37;26.08;;;19.50;;
47669;SDS011;33408;52.062;11.722;2024-03-06T04:08:03;27.27;;;21.35;;
47669;SDS011;33408;52.062;11.722;2024-03-06T04:10:31;24.77;;;20.35;;
47669;SDS011;33408;52.062;11.722;2024-03-06T04:12:58;27.02;;;20.80;;
47669;SDS011;33408;52.062;11.722;2024-03-06T04:15:25;26.33;;;19.40;;
47669;SDS011;33408;52.062;11.722;2024-03-06T04:17:52;25.58;;;19.17;;
47669;SDS011;33408;52.062;11.722;2024-03-06T04:20:19;26.95;;;21.55;;
47669;SDS011;33408;52.062;11.722;2024-03-06T04:22:47;27.50;;;20.27;;
47669;SDS011;33408;52.062;11.722;2024-03-06T04:25:16;24.10;;;19.63;;
47669;SDS011;33408;52.062;11.722;2024-03-06T04:27:42;26.10;;;20.60;;
47669;SDS011;33408;52.062;11.722;2024-03-06T04:30:10;27.60;;;20.88;;
47669;SDS011;33408;52.062;11.722;2024-03-06T04:32:37;26.27;;;21.10;;
47669;SDS011;33408;52.062;11.722;2024-03-06T04:35:04;24.83;;;19.67;;
47669;SDS011;33408;52.062;11.722;2024-03-06T04:37:32;27.83;;;20.63;;
47669;SDS011;33408;52.062;11.722;2024-03-06T04:40:01;25.60;;;21.13;;
47669;SDS011;33408;52.062;11.722;2024-03-06T04:42:33;25.45;;;20.85;;
47669;SDS011;33408;52.062;11.722;2024-03-06T04:45:00;24.83;;;20.23;;
47669;SDS011;33408;52.062;11.722;2024-03-06T04:47:28;29.38;;;22.92;;
47669;SDS011;33408;52.062;11.722;2024-03-06T04:49:54;34.20;;;23.85;;
47669;SDS011;33408;52.062;11.722;2024-03-06T04:52:22;26.52;;;19.55;;
47669;SDS011;33408;52.062;11.722;2024-03-06T04:54:49;27.33;;;21.98;;
47669;SDS011;33408;52.062;11.722;2024-03-06T04:57:17;25.85;;;21.70;;
47669;SDS011;33408;52.062;11.722;2024-03-06T04:59:44;26.45;;;20.65;;
47669;SDS011;33408;52.062;11.722;2024-03-06T05:02:10;31.33;;;20.83;;
47669;SDS011;33408;52.062;11.722;2024-03-06T05:04:37;29.30;;;22.15;;
47669;SDS011;33408;52.062;11.722;2024-03-06T05:07:03;26.33;;;21.92;;
47669;SDS011;33408;52.062;11.722;2024-03-06T05:09:30;26.67;;;20.90;;
47669;SDS011;33408;52.062;11.722;2024-03-06T05:11:56;30.85;;;22.88;;
47669;SDS011;33408;52.062;11.722;2024-03-06T05:14:25;27.83;;;21.70;;
47669;SDS011;33408;52.062;11.722;2024-03-06T05:16:51;30.65;;;21.85;;
47669;SDS011;33408;52.062;11.722;2024-03-06T05:19:18;33.50;;;22.85;;
47669;SDS011;33408;52.062;11.722;2024-03-06T05:21:45;29.17;;;22.00;;
47669;SDS011;33408;52.062;11.722;2024-03-06T05:24:11;31.98;;;22.27;;
47669;SDS011;33408;52.062;11.722;2024-03-06T05:26:38;29.65;;;23.17;;
47669;SDS011;33408;52.062;11.722;2024-03-06T05:29:04;29.70;;;22.77;;
47669;SDS011;33408;52.062;11.722;2024-03-06T05:31:32;30.95;;;22.13;;
47669;SDS011;33408;52.062;11.722;2024-03-06T05:33:59;32.15;;;24.67;;
47669;SDS011;33408;52.062;11.722;2024-03-06T05:36:26;29.38;;;22.88;;
47669;SDS011;33408;52.062;11.722;2024-03-06T05:38:53;28.25;;;21.23;;
47669;SDS011;33408;52.062;11.722;2024-03-06T05:41:19;28.17;;;22.00;;
47669;SDS011;33408;52.062;11.722;2024-03-06T05:43:46;26.55;;;21.38;;
47669;SDS011;33408;52.062;11.722;2024-03-06T05:46:12;26.80;;;21.80;;
47669;SDS011;33408;52.062;11.722;2024-03-06T05:48:42;27.98;;;22.20;;
47669;SDS011;33408;52.062;11.722;2024-03-06T05:51:08;30.05;;;21.63;;
47669;SDS011;33408;52.062;11.722;2024-03-06T05:53:38;29.13;;;22.63;;
47669;SDS011;33408;52.062;11.722;2024-03-06T05:56:07;32.35;;;23.08;;
47669;SDS011;33408;52.062;11.722;2024-03-06T05:58:34;28.25;;;22.15;;
47669;SDS011;33408;52.062;11.722;2024-03-06T06:01:01;29.52;;;23.02;;
47669;SDS011;33408;52.062;11.722;2024-03-06T06:03:28;27.80;;;22.58;;
47669;SDS011;33408;52.062;11.722;2024-03-06T06:05:56;29.80;;;23.63;;
47669;SDS011;33408;52.062;11.722;2024-03-06T06:08:23;34.58;;;23.08;;
47669;SDS011;33408;52.062;11.722;2024-03-06T06:10:50;36.05;;;24.77;;
47669;SDS011;33408;52.062;11.722;2024-03-06T06:13:17;30.67;;;23.27;;
47669;SDS011;33408;52.062;11.722;2024-03-06T06:15:44;30.60;;;23.77;;
47669;SDS011;33408;52.062;11.722;2024-03-06T06:18:11;30.40;;;23.45;;
47669;SDS011;33408;52.062;11.722;2024-03-06T06:20:37;33.78;;;24.33;;
47669;SDS011;33408;52.062;11.722;2024-03-06T06:23:06;34.05;;;24.88;;
47669;SDS011;33408;52.062;11.722;2024-03-06T06:25:32;31.20;;;24.13;;
47669;SDS011;33408;52.062;11.722;2024-03-06T06:28:00;32.28;;;24.42;;
47669;SDS011;33408;52.062;11.722;2024-03-06T06:30:27;32.42;;;24.67;;
47669;SDS011;33408;52.062;11.722;2024-03-06T06:32:53;32.42;;;25.00;;
47669;SDS011;33408;52.062;11.722;2024-03-06T06:35:20;30.80;;;25.00;;
47669;SDS011;33408;52.062;11.722;2024-03-06T06:37:47;33.50;;;25.95;;
47669;SDS011;33408;52.062;11.722;2024-03-06T06:40:17;31.65;;;25.48;;
47669;SDS011;33408;52.062;11.722;2024-03-06T06:42:44;34.15;;;25.23;;
47669;SDS011;33408;52.062;11.722;2024-03-06T06:45:14;28.95;;;23.98;;
47669;SDS011;33408;52.062;11.722;2024-03-06T06:47:41;31.52;;;24.48;;
47669;SDS011;33408;52.062;11.722;2024-03-06T06:50:08;34.83;;;24.92;;
47669;SDS011;33408;52.062;11.722;2024-03-06T06:52:36;33.20;;;25.05;;
47669;SDS011;33408;52.062;11.722;2024-03-06T06:55:05;31.50;;;24.73;;
47669;SDS011;33408;52.062;11.722;2024-03-06T06:57:35;31.08;;;24.20;;
47669;SDS011;33408;52.062;11.722;2024-03-06T07:00:02;33.70;;;24.52;;
47669;SDS011;33408;52.062;11.722;2024-03-06T07:02:35;28.42;;;22.60;;
47669;SDS011;33408;52.062;11.722;2024-03-06T07:05:02;31.60;;;25.50;;
47669;SDS011;33408;52.062;11.722;2024-03-06T07:07:30;31.20;;;24.42;;
47669;SDS011;33408;52.062;11.722;2024-03-06T07:09:57;30.65;;;24.55;;
47669;SDS011;33408;52.062;11.722;2024-03-06T07:12:23;30.10;;;24.80;;
47669;SDS011;33408;52.062;11.722;2024-03-06T07:14:51;31.30;;;26.33;;
47669;SDS011;33408;52.062;11.722;2024-03-06T07:17:18;34.33;;;26.70;;
47669;SDS011;33408;52.062;11.722;2024-03-06T07:19:45;32.85;;;26.73;;
47669;SDS011;33408;52.062;11.722;2024-03-06T07:22:11;32.90;;;25.83;;
47669;SDS011;33408;52.062;11.722;2024-03-06T07:24:38;37.05;;;27.25;;
47669;SDS011;33408;52.062;11.722;2024-03-06T07:27:04;35.67;;;26.08;;
47669;SDS011;33408;52.062;11.722;2024-03-06T07:29:33;31.02;;;25.70;;
47669;SDS011;33408;52.062;11.722;2024-03-06T07:32:01;33.40;;;25.42;;
47669;SDS011;33408;52.062;11.722;2024-03-06T07:34:30;30.45;;;25.00;;
47669;SDS011;33408;52.062;11.722;2024-03-06T07:36:57;32.28;;;23.60;;
47669;SDS011;33408;52.062;11.722;2024-03-06T07:39:24;29.20;;;24.40;;
47669;SDS011;33408;52.062;11.722;2024-03-06T07:41:51;29.88;;;25.08;;
47669;SDS011;33408;52.062;11.722;2024-03-06T07:44:19;27.98;;;23.33;;
47669;SDS011;33408;52.062;11.722;2024-03-06T07:46:46;32.42;;;25.27;;
47669;SDS011;33408;52.062;11.722;2024-03-06T07:49:15;30.77;;;24.55;;
47669;SDS011;33408;52.062;11.722;2024-03-06T07:51:41;34.03;;;25.63;;
47669;SDS011;33408;52.062;11.722;2024-03-06T07:54:08;29.83;;;24.38;;
47669;SDS011;33408;52.062;11.722;2024-03-06T07:56:36;33.08;;;26.50;;
47669;SDS011;33408;52.062;11.722;2024-03-06T07:59:02;30.95;;;25.85;;
47669;SDS011;33408;52.062;11.722;2024-03-06T08:01:30;31.63;;;26.00;;
47669;SDS011;33408;52.062;11.722;2024-03-06T08:03:58;33.50;;;26.90;;
47669;SDS011;33408;52.062;11.722;2024-03-06T08:06:26;30.42;;;25.00;;
47669;SDS011;33408;52.062;11.722;2024-03-06T08:08:54;32.17;;;25.88;;
47669;SDS011;33408;52.062;11.722;2024-03-06T08:11:21;33.15;;;25.90;;
47669;SDS011;33408;52.062;11.722;2024-03-06T08:13:49;31.95;;;25.92;;
47669;SDS011;33408;52.062;11.722;2024-03-06T08:16:16;36.78;;;25.85;;
47669;SDS011;33408;52.062;11.722;2024-03-06T08:18:43;30.23;;;24.02;;
47669;SDS011;33408;52.062;11.722;2024-03-06T08:21:09;28.52;;;22.15;;
47669;SDS011;33408;52.062;11.722;2024-03-06T08:23:37;34.97;;;24.77;;
47669;SDS011;33408;52.062;11.722;2024-03-06T08:26:04;30.10;;;23.33;;
47669;SDS011;33408;52.062;11.722;2024-03-06T08:28:30;31.40;;;23.98;;
47669;SDS011;33408;52.062;11.722;2024-03-06T08:30:57;29.75;;;23.95;;
47669;SDS011;33408;52.062;11.722;2024-03-06T08:33:24;30.67;;;22.95;;
47669;SDS011;33408;52.062;11.722;2024-03-06T08:35:50;29.25;;;22.27;;
47669;SDS011;33408;52.062;11.722;2024-03-06T08:38:17;26.02;;;19.65;;
47669;SDS011;33408;52.062;11.722;2024-03-06T08:40:45;28.88;;;23.27;;
47669;SDS011;33408;52.062;11.722;2024-03-06T08:43:12;29.15;;;22.05;;
47669;SDS011;33408;52.062;11.722;2024-03-06T08:45:40;28.08;;;23.15;;
47669;SDS011;33408;52.062;11.722;2024-03-06T08:48:07;29.88;;;22.85;;
47669;SDS011;33408;52.062;11.722;2024-03-06T08:50:34;32.50;;;24.25;;
47669;SDS011;33408;52.062;11.722;2024-03-06T08:53:01;25.10;;;20.80;;
47669;SDS011;33408;52.062;11.722;2024-03-06T08:55:28;27.38;;;21.27;;
47669;SDS011;33408;52.062;11.722;2024-03-06T08:57:56;28.63;;;21.17;;
47669;SDS011;33408;52.062;11.722;2024-03-06T09:00:23;25.23;;;19.67;;
47669;SDS011;33408;52.062;11.722;2024-03-06T09:02:52;29.75;;;20.45;;
47669;SDS011;33408;52.062;11.722;2024-03-06T09:05:19;22.85;;;18.63;;
47669;SDS011;33408;52.062;11.722;2024-03-06T09:07:47;23.27;;;19.45;;
47669;SDS011;33408;52.062;11.722;2024-03-06T09:10:15;27.23;;;21.15;;
47669;SDS011;33408;52.062;11.722;2024-03-06T09:12:43;27.77;;;20.95;;
47669;SDS011;33408;52.062;11.722;2024-03-06T09:15:12;22.95;;;19.25;;
47669;SDS011;33408;52.062;11.722;2024-03-06T09:17:41;25.23;;;19.00;;
47669;SDS011;33408;52.062;11.722;2024-03-06T09:20:10;25.13;;;19.40;;
47669;SDS011;33408;52.062;11.722;2024-03-06T09:22:36;25.42;;;20.35;;
47669;SDS011;33408;52.062;11.722;2024-03-06T09:25:04;25.65;;;20.02;;
47669;SDS011;33408;52.062;11.722;2024-03-06T09:27:31;25.63;;;19.95;;
47669;SDS011;33408;52.062;11.722;2024-03-06T09:29:58;23.00;;;19.10;;
47669;SDS011;33408;52.062;11.722;2024-03-06T09:32:26;24.15;;;19.25;;
47669;SDS011;33408;52.062;11.722;2024-03-06T09:34:53;21.85;;;19.42;;
47669;SDS011;33408;52.062;11.722;2024-03-06T09:37:19;25.95;;;19.98;;
47669;SDS011;33408;52.062;11.722;2024-03-06T09:39:46;27.58;;;19.77;;
47669;SDS011;33408;52.062;11.722;2024-03-06T09:42:13;23.73;;;18.10;;
47669;SDS011;33408;52.062;11.722;2024-03-06T09:44:41;24.13;;;18.30;;
47669;SDS011;33408;52.062;11.722;2024-03-06T09:47:08;27.67;;;18.42;;
47669;SDS011;33408;52.062;11.722;2024-03-06T09:49:40;23.40;;;17.80;;
47669;SDS011;33408;52.062;11.722;2024-03-06T09:52:10;23.23;;;18.15;;
47669;SDS011;33408;52.062;11.722;2024-03-06T09:54:37;21.60;;;17.23;;
47669;SDS011;33408;52.062;11.722;2024-03-06T09:57:04;22.70;;;17.15;;
47669;SDS011;33408;52.062;11.722;2024-03-06T09:59:31;20.48;;;17.15;;
47669;SDS011;33408;52.062;11.722;2024-03-06T10:01:58;23.25;;;17.70;;
47669;SDS011;33408;52.062;11.722;2024-03-06T10:04:27;24.30;;;17.35;;
47669;SDS011;33408;52.062;11.722;2024-03-06T10:06:56;23.08;;;17.70;;
47669;SDS011;33408;52.062;11.722;2024-03-06T10:09:23;22.33;;;14.75;;
47669;SDS011;33408;52.062;11.722;2024-03-06T10:11:50;16.40;;;13.13;;
47669;SDS011;33408;52.062;11.722;2024-03-06T10:14:19;18.55;;;14.90;;
47669;SDS011;33408;52.062;11.722;2024-03-06T10:16:52;21.60;;;15.38;;
47669;SDS011;33408;52.062;11.722;2024-03-06T10:19:21;21.50;;;15.45;;
47669;SDS011;33408;52.062;11.722;2024-03-06T10:21:49;22.17;;;14.90;;
47669;SDS011;33408;52.062;11.722;2024-03-06T10:24:19;21.60;;;14.63;;
47669;SDS011;33408;52.062;11.722;2024-03-06T10:26:48;22.20;;;15.17;;
47669;SDS011;33408;52.062;11.722;2024-03-06T10:29:15;20.73;;;14.82;;
47669;SDS011;33408;52.062;11.722;2024-03-06T10:31:50;20.58;;;14.63;;
47669;SDS011;33408;52.062;11.722;2024-03-06T10:34:19;21.23;;;14.43;;
47669;SDS011;33408;52.062;11.722;2024-03-06T10:36:48;19.20;;;14.15;;
47669;SDS011;33408;52.062;11.722;2024-03-06T10:41:50;19.75;;;13.80;;
47669;SDS011;33408;52.062;11.722;2024-03-06T10:44:20;20.05;;;15.68;;
47669;SDS011;33408;52.062;11.722;2024-03-06T10:46:47;23.63;;;16.20;;
47669;SDS011;33408;52.062;11.722;2024-03-06T10:51:48;21.20;;;15.30;;
47669;SDS011;33408;52.062;11.722;2024-03-06T10:54:17;20.63;;;15.55;;
47669;SDS011;33408;52.062;11.722;2024-03-06T10:56:46;19.27;;;14.68;;
47669;SDS011;33408;52.062;11.722;2024-03-06T10:59:13;20.65;;;15.10;;
47669;SDS011;33408;52.062;11.722;2024-03-06T11:01:41;19.17;;;15.30;;
47669;SDS011;33408;52.062;11.722;2024-03-06T11:04:10;18.15;;;13.77;;
47669;SDS011;33408;52.062;11.722;2024-03-06T11:06:40;18.02;;;13.70;;
47669;SDS011;33408;52.062;11.722;2024-03-06T11:09:07;18.75;;;15.63;;
47669;SDS011;33408;52.062;11.722;2024-03-06T11:14:16;19.80;;;13.93;;
47669;SDS011;33408;52.062;11.722;2024-03-06T11:16:56;18.90;;;14.63;;
47669;SDS011;33408;52.062;11.722;2024-03-06T11:19:28;18.50;;;13.93;;
47669;SDS011;33408;52.062;11.722;2024-03-06T11:21:55;16.30;;;13.45;;
47669;SDS011;33408;52.062;11.722;2024-03-06T11:24:22;16.90;;;13.48;;
47669;SDS011;33408;52.062;11.722;2024-03-06T11:26:55;18.15;;;14.15;;
47669;SDS011;33408;52.062;11.722;2024-03-06T11:29:23;19.70;;;14.68;;
47669;SDS011;33408;52.062;11.722;2024-03-06T11:32:02;18.10;;;13.45;;
47669;SDS011;33408;52.062;11.722;2024-03-06T11:34:32;18.42;;;13.77;;
47669;SDS011;33408;52.062;11.722;2024-03-06T11:36:59;14.60;;;11.90;;
47669;SDS011;33408;52.062;11.722;2024-03-06T11:39:32;16.33;;;12.55;;
47669;SDS011;33408;52.062;11.722;2024-03-06T11:42:03;17.45;;;13.18;;
47669;SDS011;33408;52.062;11.722;2024-03-06T11:44:33;16.92;;;12.82;;
47669;SDS011;33408;52.062;11.722;2024-03-06T11:47:03;17.00;;;11.80;;
47669;SDS011;33408;52.062;11.722;2024-03-06T11:49:32;19.20;;;12.95;;
47669;SDS011;33408;52.062;11.722;2024-03-06T11:52:00;17.70;;;13.07;;
47669;SDS011;33408;52.062;11.722;2024-03-06T11:54:29;19.05;;;14.45;;
47669;SDS011;33408;52.062;11.722;2024-03-06T11:56:56;19.30;;;15.32;;
47669;SDS011;33408;52.062;11.722;2024-03-06T11:59:25;19.52;;;15.43;;
47669;SDS011;33408;52.062;11.722;2024-03-06T12:01:53;19.42;;;15.75;;
47669;SDS011;33408;52.062;11.722;2024-03-06T12:04:21;19.60;;;14.15;;
47669;SDS011;33408;52.062;11.722;2024-03-06T12:06:49;17.95;;;13.40;;
47669;SDS011;33408;52.062;11.722;2024-03-06T12:09:15;19.05;;;13.70;;
47669;SDS011;33408;52.062;11.722;2024-03-06T12:11:42;17.23;;;13.75;;
47669;SDS011;33408;52.062;11.722;2024-03-06T12:14:12;19.35;;;13.05;;
47669;SDS011;33408;52.062;11.722;2024-03-06T12:16:42;17.20;;;13.77;;
47669;SDS011;33408;52.062;11.722;2024-03-06T12:19:10;17.63;;;14.05;;
47669;SDS011;33408;52.062;11.722;2024-03-06T12:21:37;17.40;;;13.85;;
47669;SDS011;33408;52.062;11.722;2024-03-06T12:24:05;18.98;;;14.23;;
47669;SDS011;33408;52.062;11.722;2024-03-06T12:26:33;17.83;;;14.32;;
47669;SDS011;33408;52.062;11.722;2024-03-06T12:29:04;17.45;;;13.88;;
47669;SDS011;33408;52.062;11.722;2024-03-06T12:31:31;16.60;;;13.05;;
47669;SDS011;33408;52.062;11.722;2024-03-06T12:34:00;16.92;;;13.23;;
47669;SDS011;33408;52.062;11.722;2024-03-06T12:36:28;17.70;;;12.35;;
47669;SDS011;33408;52.062;11.722;2024-03-06T12:38:56;16.92;;;12.55;;
47669;SDS011;33408;52.062;11.722;2024-03-06T12:41:25;16.65;;;13.45;;
47669;SDS011;33408;52.062;11.722;2024-03-06T12:43:53;15.40;;;12.52;;
47669;SDS011;33408;52.062;11.722;2024-03-06T12:46:20;16.65;;;13.07;;
47669;SDS011;33408;52.062;11.722;2024-03-06T12:48:47;15.52;;;11.55;;
47669;SDS011;33408;52.062;11.722;2024-03-06T12:51:15;15.10;;;12.27;;
47669;SDS011;33408;52.062;11.722;2024-03-06T12:53:42;17.15;;;13.85;;
47669;SDS011;33408;52.062;11.722;2024-03-06T12:56:08;14.13;;;11.43;;
47669;SDS011;33408;52.062;11.722;2024-03-06T12:58:36;17.40;;;11.52;;
47669;SDS011;33408;52.062;11.722;2024-03-06T13:01:02;15.90;;;11.98;;
47669;SDS011;33408;52.062;11.722;2024-03-06T13:03:30;13.48;;;10.65;;
47669;SDS011;33408;52.062;11.722;2024-03-06T13:05:59;12.82;;;10.20;;
47669;SDS011;33408;52.062;11.722;2024-03-06T13:08:27;15.77;;;11.32;;
47669;SDS011;33408;52.062;11.722;2024-03-06T13:10:53;14.88;;;11.75;;
47669;SDS011;33408;52.062;11.722;2024-03-06T13:13:21;16.25;;;10.50;;
47669;SDS011;33408;52.062;11.722;2024-03-06T13:15:49;12.85;;;10.05;;
47669;SDS011;33408;52.062;11.722;2024-03-06T13:18:16;14.30;;;11.10;;
47669;SDS011;33408;52.062;11.722;2024-03-06T13:20:43;15.15;;;11.32;;
47669;SDS011;33408;52.062;11.722;2024-03-06T13:23:10;13.45;;;10.80;;
47669;SDS011;33408;52.062;11.722;2024-03-06T13:25:38;16.05;;;12.43;;
47669;SDS011;33408;52.062;11.722;2024-03-06T13:28:06;14.43;;;9.98;;
47669;SDS011;33408;52.062;11.722;2024-03-06T13:30:33;13.93;;;10.65;;
47669;SDS011;33408;52.062;11.722;2024-03-06T13:33:00;16.90;;;10.73;;
47669;SDS011;33408;52.062;11.722;2024-03-06T13:35:27;16.65;;;10.80;;
47669;SDS011;33408;52.062;11.722;2024-03-06T13:37:53;16.17;;;11.43;;
47669;SDS011;33408;52.062;11.722;2024-03-06T13:40:20;15.93;;;11.80;;
47669;SDS011;33408;52.062;11.722;2024-03-06T13:42:48;14.45;;;11.40;;
47669;SDS011;33408;52.062;11.722;2024-03-06T13:45:15;15.70;;;11.82;;
47669;SDS011;33408;52.062;11.722;2024-03-06T13:47:42;15.25;;;10.75;;
47669;SDS011;33408;52.062;11.722;2024-03-06T13:50:12;15.05;;;11.02;;
47669;SDS011;33408;52.062;11.722;2024-03-06T13:52:39;13.57;;;11.10;;
47669;SDS011;33408;52.062;11.722;2024-03-06T13:55:06;15.73;;;11.52;;
47669;SDS011;33408;52.062;11.722;2024-03-06T13:57:35;16.25;;;12.70;;
47669;SDS011;33408;52.062;11.722;2024-03-06T14:00:04;16.02;;;12.38;;
47669;SDS011;33408;52.062;11.722;2024-03-06T14:02:37;16.90;;;11.32;;
47669;SDS011;33408;52.062;11.722;2024-03-06T14:05:04;15.55;;;11.93;;
47669;SDS011;33408;52.062;11.722;2024-03-06T14:07:31;16.15;;;12.57;;
47669;SDS011;33408;52.062;11.722;2024-03-06T14:09:58;15.23;;;11.18;;
47669;SDS011;33408;52.062;11.722;2024-03-06T14:12:27;16.10;;;12.52;;
47669;SDS011;33408;52.062;11.722;2024-03-06T14:14:55;16.23;;;12.18;;
47669;SDS011;33408;52.062;11.722;2024-03-06T14:17:22;15.48;;;12.80;;